sensor_id;sensor_type;location;lat;lon;timestamp;P1;durP1;ratioP1;P2;durP2;ratioP2
74223;SDS011;62585;49.706;18.216;2023-02-15T00:00:42;29.58;;;12.70;;
74223;SDS011;62585;49.706;18.216;2023-02-15T00:03:27;23.88;;;11.68;;
74223;SDS011;62585;49.706;18.216;2023-02-15T00:05:53;34.03;;;14.13;;
74223;SDS011;62585;49.706;18.216;2023-02-15T00:08:22;29.25;;;12.45;;
74223;SDS011;62585;49.706;18.216;2023-02-15T00:10:48;34.17;;;12.60;;
74223;SDS011;62585;49.706;18.216;2023-02-15T00:13:13;31.00;;;14.00;;
74223;SDS011;62585;49.706;18.216;2023-02-15T00:15:39;35.40;;;13.27;;
74223;SDS011;62585;49.706;18.216;2023-02-15T00:18:05;37.15;;;13.73;;
74223;SDS011;62585;49.706;18.216;2023-02-15T00:20:31;30.25;;;13.30;;
74223;SDS011;62585;49.706;18.216;2023-02-15T00:22:56;31.45;;;13.98;;
74223;SDS011;62585;49.706;18.216;2023-02-15T00:25:22;29.85;;;12.68;;
74223;SDS011;62585;49.706;18.216;2023-02-15T00:27:48;35.15;;;13.98;;
74223;SDS011;62585;49.706;18.216;2023-02-15T00:30:14;30.20;;;12.65;;
74223;SDS011;62585;49.706;18.216;2023-02-15T00:32:39;35.83;;;12.98;;
74223;SDS011;62585;49.706;18.216;2023-02-15T00:35:05;29.13;;;12.82;;
74223;SDS011;62585;49.706;18.216;2023-02-15T00:37:32;26.45;;;11.02;;
74223;SDS011;62585;49.706;18.216;2023-02-15T00:39:58;28.35;;;12.00;;
74223;SDS011;62585;49.706;18.216;2023-02-15T00:42:23;29.33;;;12.20;;
74223;SDS011;62585;49.706;18.216;2023-02-15T00:44:49;30.67;;;12.50;;
74223;SDS011;62585;49.706;18.216;2023-02-15T00:47:15;35.65;;;12.13;;
74223;SDS011;62585;49.706;18.216;2023-02-15T00:49:41;35.25;;;13.15;;
74223;SDS011;62585;49.706;18.216;2023-02-15T00:52:06;29.42;;;12.20;;
74223;SDS011;62585;49.706;18.216;2023-02-15T00:54:32;31.15;;;12.27;;
74223;SDS011;62585;49.706;18.216;2023-02-15T00:56:59;36.55;;;14.60;;
74223;SDS011;62585;49.706;18.216;2023-02-15T00:59:25;30.23;;;13.85;;
74223;SDS011;62585;49.706;18.216;2023-02-15T01:01:51;36.90;;;13.65;;
74223;SDS011;62585;49.706;18.216;2023-02-15T01:04:17;36.35;;;13.02;;
74223;SDS011;62585;49.706;18.216;2023-02-15T01:06:42;36.97;;;12.55;;
74223;SDS011;62585;49.706;18.216;2023-02-15T01:09:08;33.72;;;14.60;;
74223;SDS011;62585;49.706;18.216;2023-02-15T01:11:34;29.85;;;13.63;;
74223;SDS011;62585;49.706;18.216;2023-02-15T01:14:00;33.28;;;11.40;;
74223;SDS011;62585;49.706;18.216;2023-02-15T01:16:26;28.80;;;13.02;;
74223;SDS011;62585;49.706;18.216;2023-02-15T01:18:54;29.02;;;11.48;;
74223;SDS011;62585;49.706;18.216;2023-02-15T01:21:23;36.92;;;13.82;;
74223;SDS011;62585;49.706;18.216;2023-02-15T01:23:50;40.97;;;15.23;;
74223;SDS011;62585;49.706;18.216;2023-02-15T01:26:16;32.47;;;12.57;;
74223;SDS011;62585;49.706;18.216;2023-02-15T01:28:42;25.73;;;13.20;;
74223;SDS011;62585;49.706;18.216;2023-02-15T01:31:09;30.77;;;13.57;;
74223;SDS011;62585;49.706;18.216;2023-02-15T01:33:37;32.80;;;13.13;;
74223;SDS011;62585;49.706;18.216;2023-02-15T01:36:03;33.03;;;13.88;;
74223;SDS011;62585;49.706;18.216;2023-02-15T01:38:30;27.73;;;13.77;;
74223;SDS011;62585;49.706;18.216;2023-02-15T01:40:56;26.13;;;12.13;;
74223;SDS011;62585;49.706;18.216;2023-02-15T01:43:43;29.50;;;13.77;;
74223;SDS011;62585;49.706;18.216;2023-02-15T01:46:12;36.85;;;14.10;;
74223;SDS011;62585;49.706;18.216;2023-02-15T01:51:10;29.23;;;12.80;;
74223;SDS011;62585;49.706;18.216;2023-02-15T01:53:38;27.77;;;12.38;;
74223;SDS011;62585;49.706;18.216;2023-02-15T01:56:29;24.80;;;11.10;;
74223;SDS011;62585;49.706;18.216;2023-02-15T01:59:00;35.13;;;13.48;;
74223;SDS011;62585;49.706;18.216;2023-02-15T02:01:31;36.35;;;13.60;;
74223;SDS011;62585;49.706;18.216;2023-02-15T02:09:01;29.33;;;12.18;;
74223;SDS011;62585;49.706;18.216;2023-02-15T02:11:28;37.55;;;15.15;;
74223;SDS011;62585;49.706;18.216;2023-02-15T02:13:54;32.85;;;17.95;;
74223;SDS011;62585;49.706;18.216;2023-02-15T02:19:10;30.98;;;12.20;;
74223;SDS011;62585;49.706;18.216;2023-02-15T02:35:57;27.05;;;12.55;;
74223;SDS011;62585;49.706;18.216;2023-02-15T02:38:38;26.23;;;12.25;;
74223;SDS011;62585;49.706;18.216;2023-02-15T02:44:07;21.75;;;12.50;;
74223;SDS011;62585;49.706;18.216;2023-02-15T02:49:30;28.20;;;12.25;;
74223;SDS011;62585;49.706;18.216;2023-02-15T02:51:59;32.33;;;11.55;;
74223;SDS011;62585;49.706;18.216;2023-02-15T02:54:26;28.48;;;11.63;;
74223;SDS011;62585;49.706;18.216;2023-02-15T02:56:53;26.20;;;12.93;;
74223;SDS011;62585;49.706;18.216;2023-02-15T02:59:32;25.55;;;10.02;;
74223;SDS011;62585;49.706;18.216;2023-02-15T03:02:09;24.75;;;9.85;;
74223;SDS011;62585;49.706;18.216;2023-02-15T03:04:38;23.85;;;10.07;;
74223;SDS011;62585;49.706;18.216;2023-02-15T03:07:09;30.33;;;11.85;;
74223;SDS011;62585;49.706;18.216;2023-02-15T03:09:41;32.00;;;12.43;;
74223;SDS011;62585;49.706;18.216;2023-02-15T03:12:14;27.27;;;11.80;;
74223;SDS011;62585;49.706;18.216;2023-02-15T03:14:48;30.15;;;10.40;;
74223;SDS011;62585;49.706;18.216;2023-02-15T03:17:27;26.83;;;11.88;;
74223;SDS011;62585;49.706;18.216;2023-02-15T03:19:58;19.13;;;9.88;;
74223;SDS011;62585;49.706;18.216;2023-02-15T03:27:58;22.73;;;9.23;;
74223;SDS011;62585;49.706;18.216;2023-02-15T03:30:27;31.35;;;11.18;;
74223;SDS011;62585;49.706;18.216;2023-02-15T03:35:22;32.83;;;12.80;;
74223;SDS011;62585;49.706;18.216;2023-02-15T03:37:52;30.33;;;11.30;;
74223;SDS011;62585;49.706;18.216;2023-02-15T03:43:16;32.25;;;12.10;;
74223;SDS011;62585;49.706;18.216;2023-02-15T03:45:47;24.90;;;9.77;;
74223;SDS011;62585;49.706;18.216;2023-02-15T03:48:22;26.38;;;11.50;;
74223;SDS011;62585;49.706;18.216;2023-02-15T03:51:02;28.80;;;11.10;;
74223;SDS011;62585;49.706;18.216;2023-02-15T03:53:52;27.33;;;11.88;;
74223;SDS011;62585;49.706;18.216;2023-02-15T03:56:19;23.30;;;11.55;;
74223;SDS011;62585;49.706;18.216;2023-02-15T03:58:45;29.50;;;12.10;;
74223;SDS011;62585;49.706;18.216;2023-02-15T04:01:54;23.77;;;12.35;;
74223;SDS011;62585;49.706;18.216;2023-02-15T04:04:31;27.45;;;11.65;;
74223;SDS011;62585;49.706;18.216;2023-02-15T04:07:01;30.08;;;10.73;;
74223;SDS011;62585;49.706;18.216;2023-02-15T04:09:28;31.10;;;12.38;;
74223;SDS011;62585;49.706;18.216;2023-02-15T04:12:13;21.92;;;11.80;;
74223;SDS011;62585;49.706;18.216;2023-02-15T04:14:39;28.63;;;12.15;;
74223;SDS011;62585;49.706;18.216;2023-02-15T04:17:23;28.65;;;13.07;;
74223;SDS011;62585;49.706;18.216;2023-02-15T04:19:49;31.85;;;12.52;;
74223;SDS011;62585;49.706;18.216;2023-02-15T04:22:33;22.75;;;11.38;;
74223;SDS011;62585;49.706;18.216;2023-02-15T04:25:18;25.60;;;11.95;;
74223;SDS011;62585;49.706;18.216;2023-02-15T04:27:45;30.92;;;13.70;;
74223;SDS011;62585;49.706;18.216;2023-02-15T04:30:14;26.35;;;12.23;;
74223;SDS011;62585;49.706;18.216;2023-02-15T04:32:41;25.83;;;10.45;;
74223;SDS011;62585;49.706;18.216;2023-02-15T04:35:07;29.58;;;11.32;;
74223;SDS011;62585;49.706;18.216;2023-02-15T04:37:33;28.60;;;13.13;;
74223;SDS011;62585;49.706;18.216;2023-02-15T04:39:59;26.55;;;11.57;;
74223;SDS011;62585;49.706;18.216;2023-02-15T04:42:25;30.50;;;13.55;;
74223;SDS011;62585;49.706;18.216;2023-02-15T04:44:52;28.33;;;12.88;;
74223;SDS011;62585;49.706;18.216;2023-02-15T04:47:18;18.10;;;9.75;;
74223;SDS011;62585;49.706;18.216;2023-02-15T04:49:44;33.08;;;14.80;;
74223;SDS011;62585;49.706;18.216;2023-02-15T04:52:10;29.15;;;13.43;;
74223;SDS011;62585;49.706;18.216;2023-02-15T04:54:36;25.70;;;12.98;;
74223;SDS011;62585;49.706;18.216;2023-02-15T04:57:03;32.70;;;13.80;;
74223;SDS011;62585;49.706;18.216;2023-02-15T04:59:29;30.75;;;12.68;;
74223;SDS011;62585;49.706;18.216;2023-02-15T05:01:55;29.63;;;13.02;;
74223;SDS011;62585;49.706;18.216;2023-02-15T05:04:21;32.38;;;15.18;;
74223;SDS011;62585;49.706;18.216;2023-02-15T05:06:46;43.47;;;19.90;;
74223;SDS011;62585;49.706;18.216;2023-02-15T05:09:12;34.75;;;16.05;;
74223;SDS011;62585;49.706;18.216;2023-02-15T05:11:38;34.47;;;14.63;;
74223;SDS011;62585;49.706;18.216;2023-02-15T05:14:05;36.67;;;16.58;;
74223;SDS011;62585;49.706;18.216;2023-02-15T05:16:30;32.38;;;12.82;;
74223;SDS011;62585;49.706;18.216;2023-02-15T05:18:56;33.92;;;16.02;;
74223;SDS011;62585;49.706;18.216;2023-02-15T05:21:22;31.50;;;12.63;;
74223;SDS011;62585;49.706;18.216;2023-02-15T05:23:48;25.92;;;12.23;;
74223;SDS011;62585;49.706;18.216;2023-02-15T05:26:16;29.63;;;13.20;;
74223;SDS011;62585;49.706;18.216;2023-02-15T05:29:02;27.27;;;10.95;;
74223;SDS011;62585;49.706;18.216;2023-02-15T05:31:28;27.50;;;10.45;;
74223;SDS011;62585;49.706;18.216;2023-02-15T05:33:57;32.53;;;14.25;;
74223;SDS011;62585;49.706;18.216;2023-02-15T05:36:22;31.55;;;14.10;;
74223;SDS011;62585;49.706;18.216;2023-02-15T05:38:48;21.27;;;10.93;;
74223;SDS011;62585;49.706;18.216;2023-02-15T05:41:14;24.77;;;10.00;;
74223;SDS011;62585;49.706;18.216;2023-02-15T05:43:40;26.17;;;9.55;;
74223;SDS011;62585;49.706;18.216;2023-02-15T05:46:05;16.30;;;9.13;;
74223;SDS011;62585;49.706;18.216;2023-02-15T05:48:32;24.48;;;9.07;;
74223;SDS011;62585;49.706;18.216;2023-02-15T05:50:59;18.95;;;9.00;;
74223;SDS011;62585;49.706;18.216;2023-02-15T05:53:33;19.65;;;8.50;;
74223;SDS011;62585;49.706;18.216;2023-02-15T05:56:01;21.92;;;8.88;;
74223;SDS011;62585;49.706;18.216;2023-02-15T05:58:38;18.40;;;9.32;;
74223;SDS011;62585;49.706;18.216;2023-02-15T06:01:09;20.55;;;8.45;;
74223;SDS011;62585;49.706;18.216;2023-02-15T06:03:36;18.42;;;10.35;;
74223;SDS011;62585;49.706;18.216;2023-02-15T06:06:02;27.25;;;10.43;;
74223;SDS011;62585;49.706;18.216;2023-02-15T06:08:30;27.08;;;9.73;;
74223;SDS011;62585;49.706;18.216;2023-02-15T06:10:56;18.13;;;8.48;;
74223;SDS011;62585;49.706;18.216;2023-02-15T06:13:22;19.38;;;8.05;;
74223;SDS011;62585;49.706;18.216;2023-02-15T06:15:48;18.85;;;8.13;;
74223;SDS011;62585;49.706;18.216;2023-02-15T06:18:14;23.90;;;11.63;;
74223;SDS011;62585;49.706;18.216;2023-02-15T06:20:39;21.42;;;9.80;;
74223;SDS011;62585;49.706;18.216;2023-02-15T06:23:05;22.92;;;10.77;;
74223;SDS011;62585;49.706;18.216;2023-02-15T06:25:31;21.08;;;10.38;;
74223;SDS011;62585;49.706;18.216;2023-02-15T06:27:57;18.55;;;9.73;;
74223;SDS011;62585;49.706;18.216;2023-02-15T06:30:23;19.00;;;9.57;;
74223;SDS011;62585;49.706;18.216;2023-02-15T06:32:48;23.05;;;10.40;;
74223;SDS011;62585;49.706;18.216;2023-02-15T06:35:17;21.45;;;10.00;;
74223;SDS011;62585;49.706;18.216;2023-02-15T06:37:44;20.38;;;9.32;;
74223;SDS011;62585;49.706;18.216;2023-02-15T06:40:10;22.73;;;10.80;;
74223;SDS011;62585;49.706;18.216;2023-02-15T06:42:37;20.85;;;9.10;;
74223;SDS011;62585;49.706;18.216;2023-02-15T06:45:02;20.13;;;9.07;;
74223;SDS011;62585;49.706;18.216;2023-02-15T06:47:29;24.77;;;9.80;;
74223;SDS011;62585;49.706;18.216;2023-02-15T06:49:54;24.48;;;12.32;;
74223;SDS011;62585;49.706;18.216;2023-02-15T06:52:20;28.15;;;12.35;;
74223;SDS011;62585;49.706;18.216;2023-02-15T06:54:46;22.42;;;10.23;;
74223;SDS011;62585;49.706;18.216;2023-02-15T06:57:12;23.52;;;10.80;;
74223;SDS011;62585;49.706;18.216;2023-02-15T06:59:38;34.08;;;16.30;;
74223;SDS011;62585;49.706;18.216;2023-02-15T07:02:04;27.08;;;12.35;;
74223;SDS011;62585;49.706;18.216;2023-02-15T07:04:29;24.45;;;11.95;;
74223;SDS011;62585;49.706;18.216;2023-02-15T07:06:55;26.08;;;12.93;;
74223;SDS011;62585;49.706;18.216;2023-02-15T07:09:21;23.17;;;10.48;;
74223;SDS011;62585;49.706;18.216;2023-02-15T07:11:48;25.92;;;9.73;;
74223;SDS011;62585;49.706;18.216;2023-02-15T07:14:32;29.65;;;10.85;;
74223;SDS011;62585;49.706;18.216;2023-02-15T07:16:58;21.92;;;10.00;;
74223;SDS011;62585;49.706;18.216;2023-02-15T07:19:24;25.50;;;11.43;;
74223;SDS011;62585;49.706;18.216;2023-02-15T07:21:50;21.08;;;8.55;;
74223;SDS011;62585;49.706;18.216;2023-02-15T07:24:15;24.17;;;9.68;;
74223;SDS011;62585;49.706;18.216;2023-02-15T07:26:41;29.27;;;12.90;;
74223;SDS011;62585;49.706;18.216;2023-02-15T07:29:07;24.45;;;11.88;;
74223;SDS011;62585;49.706;18.216;2023-02-15T07:31:33;22.70;;;9.57;;
74223;SDS011;62585;49.706;18.216;2023-02-15T07:33:58;23.35;;;9.77;;
74223;SDS011;62585;49.706;18.216;2023-02-15T07:36:24;27.17;;;12.02;;
74223;SDS011;62585;49.706;18.216;2023-02-15T07:38:50;25.73;;;11.00;;
74223;SDS011;62585;49.706;18.216;2023-02-15T07:41:16;33.80;;;13.45;;
74223;SDS011;62585;49.706;18.216;2023-02-15T07:43:42;28.80;;;13.63;;
74223;SDS011;62585;49.706;18.216;2023-02-15T07:46:14;27.90;;;12.68;;
74223;SDS011;62585;49.706;18.216;2023-02-15T07:48:42;18.75;;;8.80;;
74223;SDS011;62585;49.706;18.216;2023-02-15T07:51:09;17.38;;;7.93;;
74223;SDS011;62585;49.706;18.216;2023-02-15T07:53:36;29.75;;;12.45;;
74223;SDS011;62585;49.706;18.216;2023-02-15T07:56:04;24.17;;;11.65;;
74223;SDS011;62585;49.706;18.216;2023-02-15T07:58:32;22.38;;;10.07;;
74223;SDS011;62585;49.706;18.216;2023-02-15T08:01:38;21.70;;;10.32;;
74223;SDS011;62585;49.706;18.216;2023-02-15T08:04:05;16.85;;;10.18;;
74223;SDS011;62585;49.706;18.216;2023-02-15T08:06:34;26.98;;;10.73;;
74223;SDS011;62585;49.706;18.216;2023-02-15T08:09:02;26.95;;;10.07;;
74223;SDS011;62585;49.706;18.216;2023-02-15T08:11:31;29.50;;;12.23;;
74223;SDS011;62585;49.706;18.216;2023-02-15T08:14:02;23.77;;;9.48;;
74223;SDS011;62585;49.706;18.216;2023-02-15T08:19:12;20.83;;;9.07;;
74223;SDS011;62585;49.706;18.216;2023-02-15T08:21:45;22.40;;;9.90;;
74223;SDS011;62585;49.706;18.216;2023-02-15T08:24:13;18.30;;;9.00;;
74223;SDS011;62585;49.706;18.216;2023-02-15T08:26:40;17.48;;;8.13;;
74223;SDS011;62585;49.706;18.216;2023-02-15T08:29:08;23.48;;;9.05;;
74223;SDS011;62585;49.706;18.216;2023-02-15T08:31:35;21.80;;;8.10;;
74223;SDS011;62585;49.706;18.216;2023-02-15T08:36:29;14.55;;;5.78;;
74223;SDS011;62585;49.706;18.216;2023-02-15T08:39:00;21.50;;;9.48;;
74223;SDS011;62585;49.706;18.216;2023-02-15T08:41:28;18.95;;;7.97;;
74223;SDS011;62585;49.706;18.216;2023-02-15T08:46:23;16.80;;;8.10;;
74223;SDS011;62585;49.706;18.216;2023-02-15T08:48:50;19.58;;;9.32;;
74223;SDS011;62585;49.706;18.216;2023-02-15T08:51:18;13.18;;;6.70;;
74223;SDS011;62585;49.706;18.216;2023-02-15T08:53:47;11.85;;;6.95;;
74223;SDS011;62585;49.706;18.216;2023-02-15T08:56:15;18.42;;;8.23;;
74223;SDS011;62585;49.706;18.216;2023-02-15T08:58:41;11.93;;;5.57;;
74223;SDS011;62585;49.706;18.216;2023-02-15T09:01:08;13.52;;;7.38;;
74223;SDS011;62585;49.706;18.216;2023-02-15T09:04:01;19.83;;;9.38;;
74223;SDS011;62585;49.706;18.216;2023-02-15T09:06:30;18.42;;;9.25;;
74223;SDS011;62585;49.706;18.216;2023-02-15T09:08:56;21.67;;;8.98;;
74223;SDS011;62585;49.706;18.216;2023-02-15T09:13:56;16.38;;;7.40;;
74223;SDS011;62585;49.706;18.216;2023-02-15T09:16:29;19.30;;;9.43;;
74223;SDS011;62585;49.706;18.216;2023-02-15T09:18:56;16.05;;;7.25;;
74223;SDS011;62585;49.706;18.216;2023-02-15T09:21:24;22.98;;;9.30;;
74223;SDS011;62585;49.706;18.216;2023-02-15T09:23:54;12.45;;;6.35;;
74223;SDS011;62585;49.706;18.216;2023-02-15T09:28:52;14.10;;;7.28;;
74223;SDS011;62585;49.706;18.216;2023-02-15T09:31:22;22.15;;;8.73;;
74223;SDS011;62585;49.706;18.216;2023-02-15T09:33:50;18.58;;;9.02;;
74223;SDS011;62585;49.706;18.216;2023-02-15T09:36:26;14.63;;;6.97;;
74223;SDS011;62585;49.706;18.216;2023-02-15T09:38:55;16.83;;;7.97;;
74223;SDS011;62585;49.706;18.216;2023-02-15T09:55:48;10.75;;;5.47;;
74223;SDS011;62585;49.706;18.216;2023-02-15T10:06:53;19.02;;;8.68;;
74223;SDS011;62585;49.706;18.216;2023-02-15T10:12:23;4.93;;;2.67;;
74223;SDS011;62585;49.706;18.216;2023-02-15T10:15:13;12.93;;;5.82;;
74223;SDS011;62585;49.706;18.216;2023-02-15T10:26:20;28.33;;;10.63;;
74223;SDS011;62585;49.706;18.216;2023-02-15T10:28:49;23.27;;;9.60;;
74223;SDS011;62585;49.706;18.216;2023-02-15T10:31:34;17.17;;;9.48;;
74223;SDS011;62585;49.706;18.216;2023-02-15T10:34:15;11.68;;;6.00;;
74223;SDS011;62585;49.706;18.216;2023-02-15T10:37:04;26.52;;;10.43;;
74223;SDS011;62585;49.706;18.216;2023-02-15T10:50:55;24.65;;;11.38;;
74223;SDS011;62585;49.706;18.216;2023-02-15T11:06:59;25.30;;;12.48;;
74223;SDS011;62585;49.706;18.216;2023-02-15T11:09:34;12.93;;;5.65;;
74223;SDS011;62585;49.706;18.216;2023-02-15T11:12:08;18.83;;;8.95;;
74223;SDS011;62585;49.706;18.216;2023-02-15T11:17:40;28.60;;;11.90;;
74223;SDS011;62585;49.706;18.216;2023-02-15T11:22:48;21.70;;;10.52;;
74223;SDS011;62585;49.706;18.216;2023-02-15T11:25:25;22.27;;;11.13;;
74223;SDS011;62585;49.706;18.216;2023-02-15T11:27:53;23.42;;;11.95;;
74223;SDS011;62585;49.706;18.216;2023-02-15T11:30:22;26.00;;;11.07;;
74223;SDS011;62585;49.706;18.216;2023-02-15T11:32:53;27.08;;;10.60;;
74223;SDS011;62585;49.706;18.216;2023-02-15T11:35:32;29.75;;;13.80;;
74223;SDS011;62585;49.706;18.216;2023-02-15T11:41:02;22.08;;;8.43;;
74223;SDS011;62585;49.706;18.216;2023-02-15T11:43:38;22.30;;;9.90;;
74223;SDS011;62585;49.706;18.216;2023-02-15T11:46:10;26.65;;;11.48;;
74223;SDS011;62585;49.706;18.216;2023-02-15T11:48:37;25.98;;;10.98;;
74223;SDS011;62585;49.706;18.216;2023-02-15T11:51:04;29.60;;;13.38;;
74223;SDS011;62585;49.706;18.216;2023-02-15T11:53:32;21.27;;;9.85;;
74223;SDS011;62585;49.706;18.216;2023-02-15T11:56:01;27.02;;;12.55;;
74223;SDS011;62585;49.706;18.216;2023-02-15T12:01:09;22.92;;;11.15;;
74223;SDS011;62585;49.706;18.216;2023-02-15T12:06:24;26.48;;;12.35;;
74223;SDS011;62585;49.706;18.216;2023-02-15T12:09:17;25.58;;;10.68;;
74223;SDS011;62585;49.706;18.216;2023-02-15T12:11:51;19.42;;;8.65;;
74223;SDS011;62585;49.706;18.216;2023-02-15T12:14:17;22.00;;;9.95;;
74223;SDS011;62585;49.706;18.216;2023-02-15T12:16:47;18.90;;;9.15;;
74223;SDS011;62585;49.706;18.216;2023-02-15T12:21:58;25.15;;;11.23;;
74223;SDS011;62585;49.706;18.216;2023-02-15T12:24:28;22.88;;;10.00;;
74223;SDS011;62585;49.706;18.216;2023-02-15T12:27:16;26.33;;;11.73;;
74223;SDS011;62585;49.706;18.216;2023-02-15T12:29:51;21.88;;;9.82;;
74223;SDS011;62585;49.706;18.216;2023-02-15T12:32:24;18.00;;;8.73;;
74223;SDS011;62585;49.706;18.216;2023-02-15T12:34:54;24.75;;;11.38;;
74223;SDS011;62585;49.706;18.216;2023-02-15T12:37:27;25.42;;;10.93;;
74223;SDS011;62585;49.706;18.216;2023-02-15T12:40:01;20.58;;;10.23;;
74223;SDS011;62585;49.706;18.216;2023-02-15T12:42:44;20.58;;;10.45;;
74223;SDS011;62585;49.706;18.216;2023-02-15T12:45:21;27.50;;;12.40;;
74223;SDS011;62585;49.706;18.216;2023-02-15T12:48:08;24.23;;;11.73;;
74223;SDS011;62585;49.706;18.216;2023-02-15T12:50:37;17.83;;;10.20;;
74223;SDS011;62585;49.706;18.216;2023-02-15T12:53:07;20.00;;;9.65;;
74223;SDS011;62585;49.706;18.216;2023-02-15T12:55:40;19.13;;;9.27;;
74223;SDS011;62585;49.706;18.216;2023-02-15T12:58:20;26.75;;;12.02;;
74223;SDS011;62585;49.706;18.216;2023-02-15T13:00:54;25.23;;;9.48;;
74223;SDS011;62585;49.706;18.216;2023-02-15T13:03:38;25.65;;;11.93;;
74223;SDS011;62585;49.706;18.216;2023-02-15T13:06:17;28.40;;;12.52;;
74223;SDS011;62585;49.706;18.216;2023-02-15T13:08:50;17.90;;;10.02;;
74223;SDS011;62585;49.706;18.216;2023-02-15T13:11:39;17.88;;;9.52;;
74223;SDS011;62585;49.706;18.216;2023-02-15T13:17:03;21.83;;;11.30;;
74223;SDS011;62585;49.706;18.216;2023-02-15T13:20:31;25.83;;;11.25;;
74223;SDS011;62585;49.706;18.216;2023-02-15T13:22:44;18.02;;;9.38;;
74223;SDS011;62585;49.706;18.216;2023-02-15T13:25:20;24.02;;;12.18;;
74223;SDS011;62585;49.706;18.216;2023-02-15T13:27:50;20.45;;;10.13;;
74223;SDS011;62585;49.706;18.216;2023-02-15T13:30:20;21.70;;;9.13;;
74223;SDS011;62585;49.706;18.216;2023-02-15T13:33:08;16.77;;;9.75;;
74223;SDS011;62585;49.706;18.216;2023-02-15T13:36:14;20.73;;;8.57;;
74223;SDS011;62585;49.706;18.216;2023-02-15T13:39:15;18.17;;;9.90;;
74223;SDS011;62585;49.706;18.216;2023-02-15T13:47:52;18.02;;;9.02;;
74223;SDS011;62585;49.706;18.216;2023-02-15T13:50:45;20.85;;;10.55;;
74223;SDS011;62585;49.706;18.216;2023-02-15T14:16:03;20.77;;;10.52;;
74223;SDS011;62585;49.706;18.216;2023-02-15T14:27:27;26.52;;;10.77;;
74223;SDS011;62585;49.706;18.216;2023-02-15T14:30:00;25.70;;;9.90;;
74223;SDS011;62585;49.706;18.216;2023-02-15T14:35:14;21.00;;;10.27;;
74223;SDS011;62585;49.706;18.216;2023-02-15T14:41:03;19.45;;;10.48;;
74223;SDS011;62585;49.706;18.216;2023-02-15T14:49:24;24.65;;;12.43;;
74223;SDS011;62585;49.706;18.216;2023-02-15T14:52:03;24.35;;;12.20;;
74223;SDS011;62585;49.706;18.216;2023-02-15T14:59:46;27.98;;;12.10;;
74223;SDS011;62585;49.706;18.216;2023-02-15T15:02:26;29.05;;;12.27;;
74223;SDS011;62585;49.706;18.216;2023-02-15T15:05:02;23.25;;;10.45;;
74223;SDS011;62585;49.706;18.216;2023-02-15T15:12:51;25.10;;;11.70;;
74223;SDS011;62585;49.706;18.216;2023-02-15T15:18:07;26.58;;;12.35;;
74223;SDS011;62585;49.706;18.216;2023-02-15T15:20:50;28.52;;;13.40;;
74223;SDS011;62585;49.706;18.216;2023-02-15T15:25:46;20.80;;;11.02;;
74223;SDS011;62585;49.706;18.216;2023-02-15T15:31:45;28.20;;;12.00;;
74223;SDS011;62585;49.706;18.216;2023-02-15T15:50:34;28.92;;;12.88;;
74223;SDS011;62585;49.706;18.216;2023-02-15T15:53:06;12.60;;;6.43;;
74223;SDS011;62585;49.706;18.216;2023-02-15T15:55:38;24.35;;;12.20;;
74223;SDS011;62585;49.706;18.216;2023-02-15T15:58:05;19.13;;;8.88;;
74223;SDS011;62585;49.706;18.216;2023-02-15T16:03:00;15.80;;;9.13;;
74223;SDS011;62585;49.706;18.216;2023-02-15T16:05:26;24.15;;;11.07;;
74223;SDS011;62585;49.706;18.216;2023-02-15T16:07:59;19.50;;;7.35;;
74223;SDS011;62585;49.706;18.216;2023-02-15T16:10:26;18.58;;;8.93;;
74223;SDS011;62585;49.706;18.216;2023-02-15T16:12:54;32.22;;;12.43;;
74223;SDS011;62585;49.706;18.216;2023-02-15T16:15:22;28.67;;;12.30;;
74223;SDS011;62585;49.706;18.216;2023-02-15T16:17:51;15.68;;;7.90;;
74223;SDS011;62585;49.706;18.216;2023-02-15T16:20:31;19.55;;;8.50;;
74223;SDS011;62585;49.706;18.216;2023-02-15T16:23:06;22.00;;;9.23;;
74223;SDS011;62585;49.706;18.216;2023-02-15T16:28:15;22.63;;;9.63;;
74223;SDS011;62585;49.706;18.216;2023-02-15T16:30:43;29.40;;;13.30;;
74223;SDS011;62585;49.706;18.216;2023-02-15T16:33:11;19.77;;;7.97;;
74223;SDS011;62585;49.706;18.216;2023-02-15T16:35:52;16.05;;;8.77;;
74223;SDS011;62585;49.706;18.216;2023-02-15T16:41:28;26.80;;;10.73;;
74223;SDS011;62585;49.706;18.216;2023-02-15T16:43:56;26.05;;;12.18;;
74223;SDS011;62585;49.706;18.216;2023-02-15T16:46:25;14.38;;;6.20;;
74223;SDS011;62585;49.706;18.216;2023-02-15T16:48:54;25.50;;;10.43;;
74223;SDS011;62585;49.706;18.216;2023-02-15T16:51:24;28.83;;;11.88;;
74223;SDS011;62585;49.706;18.216;2023-02-15T16:53:55;19.08;;;9.90;;
74223;SDS011;62585;49.706;18.216;2023-02-15T16:56:23;21.63;;;10.18;;
74223;SDS011;62585;49.706;18.216;2023-02-15T16:58:52;30.73;;;12.32;;
74223;SDS011;62585;49.706;18.216;2023-02-15T17:01:20;34.25;;;11.38;;
74223;SDS011;62585;49.706;18.216;2023-02-15T17:03:50;24.63;;;10.68;;
74223;SDS011;62585;49.706;18.216;2023-02-15T17:08:47;20.45;;;8.65;;
74223;SDS011;62585;49.706;18.216;2023-02-15T17:11:19;14.60;;;5.95;;
74223;SDS011;62585;49.706;18.216;2023-02-15T17:16:35;24.55;;;7.63;;
74223;SDS011;62585;49.706;18.216;2023-02-15T17:19:26;22.13;;;10.27;;
74223;SDS011;62585;49.706;18.216;2023-02-15T17:21:57;13.18;;;7.90;;
74223;SDS011;62585;49.706;18.216;2023-02-15T17:24:37;15.15;;;8.77;;
74223;SDS011;62585;49.706;18.216;2023-02-15T17:29:51;19.75;;;8.63;;
74223;SDS011;62585;49.706;18.216;2023-02-15T17:32:26;20.90;;;9.85;;
74223;SDS011;62585;49.706;18.216;2023-02-15T17:37:32;16.02;;;8.50;;
74223;SDS011;62585;49.706;18.216;2023-02-15T17:42:48;23.50;;;10.18;;
74223;SDS011;62585;49.706;18.216;2023-02-15T17:45:14;21.27;;;10.52;;
74223;SDS011;62585;49.706;18.216;2023-02-15T17:47:40;15.35;;;6.18;;
74223;SDS011;62585;49.706;18.216;2023-02-15T17:50:07;19.13;;;8.52;;
74223;SDS011;62585;49.706;18.216;2023-02-15T17:52:40;24.10;;;7.20;;
74223;SDS011;62585;49.706;18.216;2023-02-15T17:55:14;15.32;;;7.15;;
74223;SDS011;62585;49.706;18.216;2023-02-15T17:58:00;13.23;;;9.55;;
74223;SDS011;62585;49.706;18.216;2023-02-15T18:00:28;11.07;;;6.75;;
74223;SDS011;62585;49.706;18.216;2023-02-15T18:11:26;15.00;;;7.50;;
74223;SDS011;62585;49.706;18.216;2023-02-15T18:14:00;9.45;;;4.55;;
74223;SDS011;62585;49.706;18.216;2023-02-15T18:16:28;16.05;;;8.48;;
74223;SDS011;62585;49.706;18.216;2023-02-15T18:18:57;16.38;;;8.15;;
74223;SDS011;62585;49.706;18.216;2023-02-15T18:21:23;17.50;;;6.18;;
74223;SDS011;62585;49.706;18.216;2023-02-15T18:23:49;19.73;;;10.32;;
74223;SDS011;62585;49.706;18.216;2023-02-15T18:26:19;21.30;;;8.43;;
74223;SDS011;62585;49.706;18.216;2023-02-15T18:28:47;22.45;;;10.45;;
74223;SDS011;62585;49.706;18.216;2023-02-15T18:31:13;22.35;;;10.02;;
74223;SDS011;62585;49.706;18.216;2023-02-15T18:33:49;14.52;;;7.55;;
74223;SDS011;62585;49.706;18.216;2023-02-15T18:36:26;23.90;;;9.98;;
74223;SDS011;62585;49.706;18.216;2023-02-15T18:38:55;10.75;;;7.15;;
74223;SDS011;62585;49.706;18.216;2023-02-15T18:41:21;18.63;;;8.80;;